createdAt,value
2022-12-23T00:05:42.820Z,475
2022-12-23T00:25:42.486Z,491
2022-12-23T00:45:42.908Z,485
2022-12-23T01:05:42.900Z,482
2022-12-23T01:25:43.074Z,482
2022-12-23T01:45:42.988Z,456
2022-12-23T02:05:43.024Z,454
2022-12-23T02:25:43.040Z,454
2022-12-23T02:45:43.065Z,439
2022-12-23T03:05:43.021Z,448
2022-12-23T03:25:43.054Z,443
2022-12-23T03:45:43.084Z,443
2022-12-23T04:05:43.109Z,437
2022-12-23T04:25:43.141Z,437
2022-12-23T04:45:43.170Z,444
2022-12-23T05:05:43.189Z,438
2022-12-23T05:25:43.192Z,441
2022-12-23T05:45:43.233Z,439
2022-12-23T06:05:43.270Z,437
2022-12-23T06:25:43.252Z,437
2022-12-23T06:45:43.343Z,433
2022-12-23T07:05:43.309Z,437
2022-12-23T07:25:43.344Z,429
2022-12-23T07:45:43.472Z,437
2022-12-23T08:05:43.384Z,432
2022-12-23T08:25:43.397Z,437
2022-12-23T08:45:43.579Z,435
2022-12-23T09:05:43.455Z,425
2022-12-23T09:25:43.489Z,430
2022-12-23T09:45:43.492Z,426
2022-12-23T10:05:43.565Z,426
2022-12-23T10:25:43.541Z,426
2022-12-23T10:45:43.563Z,420
2022-12-23T11:05:43.587Z,418
2022-12-23T11:25:43.617Z,422
2022-12-23T11:45:43.717Z,414
2022-12-23T12:05:43.658Z,416
2022-12-23T12:25:43.690Z,418
2022-12-23T12:45:43.273Z,415
2022-12-23T13:05:47.190Z,418
2022-12-23T13:25:43.750Z,412
2022-12-23T13:45:43.776Z,420
2022-12-23T14:05:43.793Z,418
2022-12-23T14:25:43.834Z,425
2022-12-23T14:45:43.859Z,431
2022-12-23T15:05:43.889Z,445
2022-12-23T15:25:43.895Z,482
2022-12-23T15:45:43.923Z,516
2022-12-23T16:05:43.970Z,561
2022-12-23T16:25:48.393Z,564
2022-12-23T16:45:44.022Z,556
2022-12-23T17:05:44.021Z,567
2022-12-23T17:25:44.032Z,574
2022-12-23T17:45:44.075Z,579
2022-12-23T18:05:44.090Z,587
2022-12-23T18:25:44.090Z,554
2022-12-23T18:45:47.797Z,568
2022-12-23T19:05:44.153Z,560
2022-12-23T19:25:47.770Z,569
2022-12-23T19:45:44.180Z,564
2022-12-23T20:05:44.227Z,577
2022-12-23T20:25:44.228Z,569
2022-12-23T20:45:44.245Z,554
2022-12-23T21:05:44.290Z,554
2022-12-23T21:25:44.289Z,554
2022-12-23T21:45:44.333Z,556
2022-12-23T22:05:44.372Z,561
2022-12-23T22:25:44.343Z,552
2022-12-23T22:45:44.229Z,554
2022-12-23T23:05:44.513Z,552
2022-12-23T23:25:44.447Z,533
2022-12-23T23:45:44.513Z,547
